sensor_id;sensor_type;location;lat;lon;timestamp;P1;durP1;ratioP1;P2;durP2;ratioP2
43124;SDS011;49182;50.788;7.318;2023-03-14T00:00:53;3.13;;;0.90;;
43124;SDS011;49182;50.788;7.318;2023-03-14T00:03:20;2.85;;;0.93;;
43124;SDS011;49182;50.788;7.318;2023-03-14T00:05:47;3.25;;;1.23;;
43124;SDS011;49182;50.788;7.318;2023-03-14T00:08:14;4.25;;;1.15;;
43124;SDS011;49182;50.788;7.318;2023-03-14T00:10:40;3.35;;;0.88;;
43124;SDS011;49182;50.788;7.318;2023-03-14T00:13:09;3.15;;;0.80;;
43124;SDS011;49182;50.788;7.318;2023-03-14T00:15:35;4.60;;;0.95;;
43124;SDS011;49182;50.788;7.318;2023-03-14T00:18:02;6.93;;;1.27;;
43124;SDS011;49182;50.788;7.318;2023-03-14T00:20:29;7.97;;;1.13;;
43124;SDS011;49182;50.788;7.318;2023-03-14T00:22:58;5.20;;;0.90;;
43124;SDS011;49182;50.788;7.318;2023-03-14T00:25:24;5.93;;;1.35;;
43124;SDS011;49182;50.788;7.318;2023-03-14T00:27:51;5.32;;;1.10;;
43124;SDS011;49182;50.788;7.318;2023-03-14T00:30:19;8.30;;;1.20;;
43124;SDS011;49182;50.788;7.318;2023-03-14T00:32:46;4.05;;;1.10;;
43124;SDS011;49182;50.788;7.318;2023-03-14T00:35:13;5.50;;;1.02;;
43124;SDS011;49182;50.788;7.318;2023-03-14T00:37:39;6.32;;;0.90;;
43124;SDS011;49182;50.788;7.318;2023-03-14T00:40:07;6.53;;;1.23;;
43124;SDS011;49182;50.788;7.318;2023-03-14T00:42:34;3.78;;;1.15;;
43124;SDS011;49182;50.788;7.318;2023-03-14T00:45:01;2.83;;;0.90;;
43124;SDS011;49182;50.788;7.318;2023-03-14T00:47:29;6.78;;;1.30;;
43124;SDS011;49182;50.788;7.318;2023-03-14T00:49:56;8.25;;;1.52;;
43124;SDS011;49182;50.788;7.318;2023-03-14T00:52:23;5.20;;;0.82;;
43124;SDS011;49182;50.788;7.318;2023-03-14T00:54:49;5.32;;;1.10;;
43124;SDS011;49182;50.788;7.318;2023-03-14T00:57:16;4.18;;;1.17;;
43124;SDS011;49182;50.788;7.318;2023-03-14T00:59:42;6.03;;;1.15;;
43124;SDS011;49182;50.788;7.318;2023-03-14T01:02:09;4.03;;;1.10;;
43124;SDS011;49182;50.788;7.318;2023-03-14T01:04:37;6.07;;;1.33;;
43124;SDS011;49182;50.788;7.318;2023-03-14T01:07:04;4.32;;;1.00;;
43124;SDS011;49182;50.788;7.318;2023-03-14T01:09:31;3.58;;;0.98;;
43124;SDS011;49182;50.788;7.318;2023-03-14T01:11:58;4.32;;;1.17;;
43124;SDS011;49182;50.788;7.318;2023-03-14T01:14:24;5.22;;;1.23;;
43124;SDS011;49182;50.788;7.318;2023-03-14T01:16:51;6.97;;;1.20;;
43124;SDS011;49182;50.788;7.318;2023-03-14T01:19:18;6.15;;;1.42;;
43124;SDS011;49182;50.788;7.318;2023-03-14T01:21:46;3.88;;;0.93;;
43124;SDS011;49182;50.788;7.318;2023-03-14T01:24:13;6.35;;;1.20;;
43124;SDS011;49182;50.788;7.318;2023-03-14T01:26:40;4.45;;;0.98;;
43124;SDS011;49182;50.788;7.318;2023-03-14T01:29:07;4.38;;;1.40;;
43124;SDS011;49182;50.788;7.318;2023-03-14T01:31:37;5.35;;;1.23;;
43124;SDS011;49182;50.788;7.318;2023-03-14T01:34:04;3.55;;;0.95;;
43124;SDS011;49182;50.788;7.318;2023-03-14T01:36:31;9.60;;;1.30;;
43124;SDS011;49182;50.788;7.318;2023-03-14T01:39:01;4.40;;;1.08;;
43124;SDS011;49182;50.788;7.318;2023-03-14T01:41:28;5.82;;;1.25;;
43124;SDS011;49182;50.788;7.318;2023-03-14T01:43:57;5.72;;;1.30;;
43124;SDS011;49182;50.788;7.318;2023-03-14T01:46:28;6.18;;;1.10;;
43124;SDS011;49182;50.788;7.318;2023-03-14T01:51:56;4.18;;;1.00;;
43124;SDS011;49182;50.788;7.318;2023-03-14T01:54:30;3.45;;;1.00;;
43124;SDS011;49182;50.788;7.318;2023-03-14T01:57:02;5.63;;;1.00;;
43124;SDS011;49182;50.788;7.318;2023-03-14T01:59:35;5.18;;;0.98;;
43124;SDS011;49182;50.788;7.318;2023-03-14T02:02:04;3.95;;;0.80;;
43124;SDS011;49182;50.788;7.318;2023-03-14T02:04:33;5.88;;;1.30;;
43124;SDS011;49182;50.788;7.318;2023-03-14T02:07:04;5.95;;;1.00;;
43124;SDS011;49182;50.788;7.318;2023-03-14T02:09:43;4.72;;;1.02;;
43124;SDS011;49182;50.788;7.318;2023-03-14T02:12:18;4.28;;;0.80;;
43124;SDS011;49182;50.788;7.318;2023-03-14T02:14:51;4.25;;;1.17;;
43124;SDS011;49182;50.788;7.318;2023-03-14T02:17:29;5.82;;;1.02;;
43124;SDS011;49182;50.788;7.318;2023-03-14T02:20:10;3.13;;;1.00;;
43124;SDS011;49182;50.788;7.318;2023-03-14T02:22:52;6.78;;;1.67;;
43124;SDS011;49182;50.788;7.318;2023-03-14T02:25:22;4.95;;;1.00;;
43124;SDS011;49182;50.788;7.318;2023-03-14T02:27:57;4.95;;;1.08;;
43124;SDS011;49182;50.788;7.318;2023-03-14T02:30:25;5.25;;;1.30;;
43124;SDS011;49182;50.788;7.318;2023-03-14T02:32:54;5.85;;;1.70;;
43124;SDS011;49182;50.788;7.318;2023-03-14T02:35:25;3.17;;;0.98;;
43124;SDS011;49182;50.788;7.318;2023-03-14T02:37:57;6.88;;;1.05;;
43124;SDS011;49182;50.788;7.318;2023-03-14T02:40:33;3.35;;;1.10;;
43124;SDS011;49182;50.788;7.318;2023-03-14T02:43:01;5.28;;;0.90;;
43124;SDS011;49182;50.788;7.318;2023-03-14T02:45:35;5.65;;;1.00;;
43124;SDS011;49182;50.788;7.318;2023-03-14T02:48:09;8.55;;;1.00;;
43124;SDS011;49182;50.788;7.318;2023-03-14T02:50:41;6.20;;;1.02;;
43124;SDS011;49182;50.788;7.318;2023-03-14T02:53:09;6.13;;;1.10;;
43124;SDS011;49182;50.788;7.318;2023-03-14T02:55:38;7.25;;;1.10;;
43124;SDS011;49182;50.788;7.318;2023-03-14T02:58:11;4.95;;;0.82;;
43124;SDS011;49182;50.788;7.318;2023-03-14T03:00:39;6.88;;;1.33;;
43124;SDS011;49182;50.788;7.318;2023-03-14T03:03:07;5.68;;;1.30;;
43124;SDS011;49182;50.788;7.318;2023-03-14T03:05:34;5.03;;;1.00;;
43124;SDS011;49182;50.788;7.318;2023-03-14T03:08:01;4.07;;;1.20;;
43124;SDS011;49182;50.788;7.318;2023-03-14T03:10:29;6.50;;;1.33;;
43124;SDS011;49182;50.788;7.318;2023-03-14T03:12:57;9.23;;;1.40;;
43124;SDS011;49182;50.788;7.318;2023-03-14T03:15:27;5.05;;;1.08;;
43124;SDS011;49182;50.788;7.318;2023-03-14T03:17:55;4.35;;;1.10;;
43124;SDS011;49182;50.788;7.318;2023-03-14T03:20:21;10.18;;;1.95;;
43124;SDS011;49182;50.788;7.318;2023-03-14T03:22:48;5.68;;;1.23;;
43124;SDS011;49182;50.788;7.318;2023-03-14T03:25:15;5.55;;;1.27;;
43124;SDS011;49182;50.788;7.318;2023-03-14T03:27:44;4.78;;;1.02;;
43124;SDS011;49182;50.788;7.318;2023-03-14T03:30:15;7.57;;;1.45;;
43124;SDS011;49182;50.788;7.318;2023-03-14T03:32:44;6.22;;;1.20;;
43124;SDS011;49182;50.788;7.318;2023-03-14T03:35:11;4.28;;;1.10;;
43124;SDS011;49182;50.788;7.318;2023-03-14T03:37:38;5.53;;;1.40;;
43124;SDS011;49182;50.788;7.318;2023-03-14T03:40:06;6.30;;;1.17;;
43124;SDS011;49182;50.788;7.318;2023-03-14T03:42:35;5.40;;;1.33;;
43124;SDS011;49182;50.788;7.318;2023-03-14T03:45:05;6.72;;;1.20;;
43124;SDS011;49182;50.788;7.318;2023-03-14T03:47:37;5.65;;;1.67;;
43124;SDS011;49182;50.788;7.318;2023-03-14T03:50:06;9.25;;;1.33;;
43124;SDS011;49182;50.788;7.318;2023-03-14T03:52:34;4.80;;;1.00;;
43124;SDS011;49182;50.788;7.318;2023-03-14T03:55:01;7.63;;;1.45;;
43124;SDS011;49182;50.788;7.318;2023-03-14T03:57:28;9.02;;;1.60;;
43124;SDS011;49182;50.788;7.318;2023-03-14T03:59:55;7.25;;;1.25;;
43124;SDS011;49182;50.788;7.318;2023-03-14T04:02:22;6.93;;;1.13;;
43124;SDS011;49182;50.788;7.318;2023-03-14T04:04:50;11.05;;;2.25;;
43124;SDS011;49182;50.788;7.318;2023-03-14T04:07:18;5.22;;;1.30;;
43124;SDS011;49182;50.788;7.318;2023-03-14T04:09:45;4.25;;;1.08;;
43124;SDS011;49182;50.788;7.318;2023-03-14T04:12:30;4.88;;;1.00;;
43124;SDS011;49182;50.788;7.318;2023-03-14T04:15:05;6.85;;;0.82;;
43124;SDS011;49182;50.788;7.318;2023-03-14T04:17:35;3.70;;;0.85;;
43124;SDS011;49182;50.788;7.318;2023-03-14T04:20:02;5.40;;;0.80;;
43124;SDS011;49182;50.788;7.318;2023-03-14T04:22:35;2.05;;;0.60;;
43124;SDS011;49182;50.788;7.318;2023-03-14T04:25:02;4.93;;;0.70;;
43124;SDS011;49182;50.788;7.318;2023-03-14T04:27:33;4.93;;;0.80;;
43124;SDS011;49182;50.788;7.318;2023-03-14T04:30:02;4.63;;;1.02;;
43124;SDS011;49182;50.788;7.318;2023-03-14T04:32:52;3.85;;;0.80;;
43124;SDS011;49182;50.788;7.318;2023-03-14T04:35:21;3.47;;;0.80;;
43124;SDS011;49182;50.788;7.318;2023-03-14T04:37:53;5.53;;;0.85;;
43124;SDS011;49182;50.788;7.318;2023-03-14T04:40:21;3.60;;;1.00;;
43124;SDS011;49182;50.788;7.318;2023-03-14T04:42:51;3.75;;;0.70;;
43124;SDS011;49182;50.788;7.318;2023-03-14T04:45:19;4.40;;;0.85;;
43124;SDS011;49182;50.788;7.318;2023-03-14T04:47:46;3.55;;;0.70;;
43124;SDS011;49182;50.788;7.318;2023-03-14T04:50:16;1.48;;;0.50;;
43124;SDS011;49182;50.788;7.318;2023-03-14T04:52:44;4.85;;;0.60;;
43124;SDS011;49182;50.788;7.318;2023-03-14T04:55:12;3.25;;;1.02;;
43124;SDS011;49182;50.788;7.318;2023-03-14T04:57:39;2.10;;;0.60;;
43124;SDS011;49182;50.788;7.318;2023-03-14T05:00:08;3.65;;;0.70;;
43124;SDS011;49182;50.788;7.318;2023-03-14T05:02:52;2.55;;;0.70;;
43124;SDS011;49182;50.788;7.318;2023-03-14T05:08:19;2.40;;;0.47;;
43124;SDS011;49182;50.788;7.318;2023-03-14T05:11:04;2.95;;;0.60;;
43124;SDS011;49182;50.788;7.318;2023-03-14T05:13:51;1.60;;;0.30;;
43124;SDS011;49182;50.788;7.318;2023-03-14T05:16:53;0.60;;;0.30;;
43124;SDS011;49182;50.788;7.318;2023-03-14T05:19:42;1.75;;;0.43;;
43124;SDS011;49182;50.788;7.318;2023-03-14T05:22:25;1.42;;;0.25;;
43124;SDS011;49182;50.788;7.318;2023-03-14T05:25:10;2.30;;;0.45;;
43124;SDS011;49182;50.788;7.318;2023-03-14T05:27:38;0.93;;;0.25;;
43124;SDS011;49182;50.788;7.318;2023-03-14T05:30:33;0.43;;;0.20;;
43124;SDS011;49182;50.788;7.318;2023-03-14T05:33:19;0.65;;;0.30;;
43124;SDS011;49182;50.788;7.318;2023-03-14T05:36:06;1.15;;;0.40;;
43124;SDS011;49182;50.788;7.318;2023-03-14T05:38:51;0.25;;;0.10;;
43124;SDS011;49182;50.788;7.318;2023-03-14T05:41:47;0.98;;;0.32;;
43124;SDS011;49182;50.788;7.318;2023-03-14T05:44:42;1.23;;;0.22;;
43124;SDS011;49182;50.788;7.318;2023-03-14T05:47:28;1.13;;;0.30;;
43124;SDS011;49182;50.788;7.318;2023-03-14T05:50:09;0.68;;;0.30;;
43124;SDS011;49182;50.788;7.318;2023-03-14T05:52:53;2.28;;;0.30;;
43124;SDS011;49182;50.788;7.318;2023-03-14T05:55:52;1.63;;;0.50;;
43124;SDS011;49182;50.788;7.318;2023-03-14T05:58:33;2.47;;;0.20;;
43124;SDS011;49182;50.788;7.318;2023-03-14T06:01:11;1.58;;;0.30;;
43124;SDS011;49182;50.788;7.318;2023-03-14T06:03:57;0.95;;;0.30;;
43124;SDS011;49182;50.788;7.318;2023-03-14T06:06:24;0.10;;;0.10;;
43124;SDS011;49182;50.788;7.318;2023-03-14T06:08:50;2.45;;;1.00;;
43124;SDS011;49182;50.788;7.318;2023-03-14T06:11:17;16.48;;;5.95;;
43124;SDS011;49182;50.788;7.318;2023-03-14T06:13:45;12.68;;;3.85;;
43124;SDS011;49182;50.788;7.318;2023-03-14T06:16:14;14.30;;;4.97;;
43124;SDS011;49182;50.788;7.318;2023-03-14T06:18:41;1.95;;;0.60;;
43124;SDS011;49182;50.788;7.318;2023-03-14T06:21:09;1.67;;;0.57;;
43124;SDS011;49182;50.788;7.318;2023-03-14T06:23:36;2.15;;;0.65;;
43124;SDS011;49182;50.788;7.318;2023-03-14T06:26:04;1.70;;;0.75;;
43124;SDS011;49182;50.788;7.318;2023-03-14T06:28:31;1.20;;;0.73;;
43124;SDS011;49182;50.788;7.318;2023-03-14T06:31:00;2.90;;;0.70;;
43124;SDS011;49182;50.788;7.318;2023-03-14T06:33:34;0.65;;;0.20;;
43124;SDS011;49182;50.788;7.318;2023-03-14T06:36:02;1.05;;;0.30;;
43124;SDS011;49182;50.788;7.318;2023-03-14T06:38:29;0.40;;;0.20;;
43124;SDS011;49182;50.788;7.318;2023-03-14T06:41:02;0.20;;;0.10;;
43124;SDS011;49182;50.788;7.318;2023-03-14T06:43:34;0.40;;;0.20;;
43124;SDS011;49182;50.788;7.318;2023-03-14T06:46:02;0.30;;;0.20;;
43124;SDS011;49182;50.788;7.318;2023-03-14T06:48:31;0.10;;;0.10;;
43124;SDS011;49182;50.788;7.318;2023-03-14T06:50:59;0.75;;;0.28;;
43124;SDS011;49182;50.788;7.318;2023-03-14T06:53:26;0.98;;;0.20;;
43124;SDS011;49182;50.788;7.318;2023-03-14T06:55:53;0.80;;;0.20;;
43124;SDS011;49182;50.788;7.318;2023-03-14T06:58:21;0.30;;;0.10;;
43124;SDS011;49182;50.788;7.318;2023-03-14T07:00:48;0.77;;;0.22;;
43124;SDS011;49182;50.788;7.318;2023-03-14T07:03:20;1.23;;;0.30;;
43124;SDS011;49182;50.788;7.318;2023-03-14T07:05:49;0.10;;;0.10;;
43124;SDS011;49182;50.788;7.318;2023-03-14T07:08:17;1.27;;;0.20;;
43124;SDS011;49182;50.788;7.318;2023-03-14T07:10:44;0.15;;;0.10;;
43124;SDS011;49182;50.788;7.318;2023-03-14T07:13:11;0.40;;;0.22;;
43124;SDS011;49182;50.788;7.318;2023-03-14T07:15:49;0.38;;;0.20;;
43124;SDS011;49182;50.788;7.318;2023-03-14T07:18:15;0.10;;;0.10;;
43124;SDS011;49182;50.788;7.318;2023-03-14T07:20:44;1.42;;;0.30;;
43124;SDS011;49182;50.788;7.318;2023-03-14T07:23:12;0.28;;;0.20;;
43124;SDS011;49182;50.788;7.318;2023-03-14T07:25:46;1.05;;;0.20;;
43124;SDS011;49182;50.788;7.318;2023-03-14T07:28:15;0.65;;;0.17;;
43124;SDS011;49182;50.788;7.318;2023-03-14T07:30:45;0.35;;;0.10;;
43124;SDS011;49182;50.788;7.318;2023-03-14T07:33:17;0.93;;;0.10;;
43124;SDS011;49182;50.788;7.318;2023-03-14T07:35:43;0.30;;;0.20;;
43124;SDS011;49182;50.788;7.318;2023-03-14T07:38:10;0.65;;;0.20;;
43124;SDS011;49182;50.788;7.318;2023-03-14T07:40:50;0.73;;;0.20;;
43124;SDS011;49182;50.788;7.318;2023-03-14T07:43:17;1.30;;;0.20;;
43124;SDS011;49182;50.788;7.318;2023-03-14T07:45:48;0.10;;;0.10;;
43124;SDS011;49182;50.788;7.318;2023-03-14T07:48:16;0.10;;;0.10;;
43124;SDS011;49182;50.788;7.318;2023-03-14T07:50:43;1.92;;;0.15;;
43124;SDS011;49182;50.788;7.318;2023-03-14T07:53:10;0.43;;;0.20;;
43124;SDS011;49182;50.788;7.318;2023-03-14T07:55:39;0.43;;;0.20;;
43124;SDS011;49182;50.788;7.318;2023-03-14T07:58:07;0.88;;;0.30;;
43124;SDS011;49182;50.788;7.318;2023-03-14T08:00:34;0.10;;;0.10;;
43124;SDS011;49182;50.788;7.318;2023-03-14T08:03:01;0.32;;;0.13;;
43124;SDS011;49182;50.788;7.318;2023-03-14T08:05:27;0.95;;;0.20;;
43124;SDS011;49182;50.788;7.318;2023-03-14T08:07:54;2.33;;;0.50;;
43124;SDS011;49182;50.788;7.318;2023-03-14T08:10:21;0.32;;;0.10;;
43124;SDS011;49182;50.788;7.318;2023-03-14T08:12:48;0.13;;;0.13;;
43124;SDS011;49182;50.788;7.318;2023-03-14T08:15:16;1.08;;;0.20;;
43124;SDS011;49182;50.788;7.318;2023-03-14T08:17:43;1.58;;;0.50;;
43124;SDS011;49182;50.788;7.318;2023-03-14T08:20:10;1.15;;;0.20;;
43124;SDS011;49182;50.788;7.318;2023-03-14T08:22:37;1.40;;;0.30;;
43124;SDS011;49182;50.788;7.318;2023-03-14T08:25:04;0.47;;;0.20;;
43124;SDS011;49182;50.788;7.318;2023-03-14T08:27:31;0.73;;;0.20;;
43124;SDS011;49182;50.788;7.318;2023-03-14T08:29:58;0.80;;;0.10;;
43124;SDS011;49182;50.788;7.318;2023-03-14T08:32:26;0.17;;;0.10;;
43124;SDS011;49182;50.788;7.318;2023-03-14T08:34:53;0.45;;;0.20;;
43124;SDS011;49182;50.788;7.318;2023-03-14T08:37:20;3.25;;;0.50;;
43124;SDS011;49182;50.788;7.318;2023-03-14T08:39:52;1.10;;;0.30;;
43124;SDS011;49182;50.788;7.318;2023-03-14T08:42:20;1.00;;;0.20;;
43124;SDS011;49182;50.788;7.318;2023-03-14T08:44:46;0.10;;;0.10;;
43124;SDS011;49182;50.788;7.318;2023-03-14T08:47:13;1.10;;;0.30;;
43124;SDS011;49182;50.788;7.318;2023-03-14T08:49:41;2.15;;;0.57;;
43124;SDS011;49182;50.788;7.318;2023-03-14T08:52:08;1.95;;;0.30;;
43124;SDS011;49182;50.788;7.318;2023-03-14T08:54:34;0.55;;;0.30;;
43124;SDS011;49182;50.788;7.318;2023-03-14T08:57:01;0.30;;;0.10;;
43124;SDS011;49182;50.788;7.318;2023-03-14T08:59:28;0.17;;;0.10;;
43124;SDS011;49182;50.788;7.318;2023-03-14T09:01:54;0.20;;;0.10;;
43124;SDS011;49182;50.788;7.318;2023-03-14T09:04:21;0.55;;;0.15;;
43124;SDS011;49182;50.788;7.318;2023-03-14T09:06:49;0.10;;;0.10;;
43124;SDS011;49182;50.788;7.318;2023-03-14T09:09:16;0.00;;;0.00;;
43124;SDS011;49182;50.788;7.318;2023-03-14T09:11:42;0.20;;;0.10;;
43124;SDS011;49182;50.788;7.318;2023-03-14T09:14:09;1.30;;;0.10;;
43124;SDS011;49182;50.788;7.318;2023-03-14T09:16:36;0.10;;;0.10;;
43124;SDS011;49182;50.788;7.318;2023-03-14T09:19:03;1.30;;;0.10;;
43124;SDS011;49182;50.788;7.318;2023-03-14T09:21:29;1.05;;;0.40;;
43124;SDS011;49182;50.788;7.318;2023-03-14T09:23:57;0.35;;;0.10;;
43124;SDS011;49182;50.788;7.318;2023-03-14T09:26:24;0.00;;;0.00;;
43124;SDS011;49182;50.788;7.318;2023-03-14T09:28:50;0.60;;;0.20;;
43124;SDS011;49182;50.788;7.318;2023-03-14T09:31:17;0.20;;;0.10;;
43124;SDS011;49182;50.788;7.318;2023-03-14T09:33:44;1.80;;;0.40;;
43124;SDS011;49182;50.788;7.318;2023-03-14T09:36:10;0.35;;;0.10;;
43124;SDS011;49182;50.788;7.318;2023-03-14T09:38:37;1.40;;;0.57;;
43124;SDS011;49182;50.788;7.318;2023-03-14T09:41:10;2.30;;;0.80;;
43124;SDS011;49182;50.788;7.318;2023-03-14T09:43:40;8.48;;;3.90;;
43124;SDS011;49182;50.788;7.318;2023-03-14T09:46:09;3.08;;;1.13;;
43124;SDS011;49182;50.788;7.318;2023-03-14T09:48:36;1.35;;;0.63;;
43124;SDS011;49182;50.788;7.318;2023-03-14T09:51:04;3.03;;;0.60;;
43124;SDS011;49182;50.788;7.318;2023-03-14T09:53:39;2.58;;;0.52;;
43124;SDS011;49182;50.788;7.318;2023-03-14T09:56:11;0.95;;;0.30;;
43124;SDS011;49182;50.788;7.318;2023-03-14T09:58:41;1.17;;;0.60;;
43124;SDS011;49182;50.788;7.318;2023-03-14T10:01:11;1.30;;;0.30;;
43124;SDS011;49182;50.788;7.318;2023-03-14T10:03:42;1.10;;;0.40;;
43124;SDS011;49182;50.788;7.318;2023-03-14T10:06:11;2.10;;;0.30;;
43124;SDS011;49182;50.788;7.318;2023-03-14T10:08:39;0.68;;;0.30;;
43124;SDS011;49182;50.788;7.318;2023-03-14T10:11:06;0.98;;;0.47;;
43124;SDS011;49182;50.788;7.318;2023-03-14T10:13:39;1.25;;;0.30;;
43124;SDS011;49182;50.788;7.318;2023-03-14T10:16:14;1.02;;;0.40;;
43124;SDS011;49182;50.788;7.318;2023-03-14T10:18:43;2.63;;;0.88;;
43124;SDS011;49182;50.788;7.318;2023-03-14T10:21:16;2.35;;;0.70;;
43124;SDS011;49182;50.788;7.318;2023-03-14T10:23:47;1.70;;;0.80;;
43124;SDS011;49182;50.788;7.318;2023-03-14T10:26:15;4.50;;;1.45;;
43124;SDS011;49182;50.788;7.318;2023-03-14T10:28:45;1.17;;;0.43;;
43124;SDS011;49182;50.788;7.318;2023-03-14T10:31:15;2.38;;;0.70;;
43124;SDS011;49182;50.788;7.318;2023-03-14T10:33:41;1.25;;;0.70;;
43124;SDS011;49182;50.788;7.318;2023-03-14T10:36:15;1.13;;;0.60;;
43124;SDS011;49182;50.788;7.318;2023-03-14T10:38:45;1.75;;;0.70;;
43124;SDS011;49182;50.788;7.318;2023-03-14T10:41:14;1.75;;;0.80;;
43124;SDS011;49182;50.788;7.318;2023-03-14T10:43:44;2.78;;;0.73;;
43124;SDS011;49182;50.788;7.318;2023-03-14T10:46:12;1.60;;;0.70;;
43124;SDS011;49182;50.788;7.318;2023-03-14T10:49:04;2.08;;;0.80;;
43124;SDS011;49182;50.788;7.318;2023-03-14T10:51:31;2.30;;;0.85;;
43124;SDS011;49182;50.788;7.318;2023-03-14T10:53:59;2.28;;;0.90;;
43124;SDS011;49182;50.788;7.318;2023-03-14T10:56:33;2.38;;;0.95;;
43124;SDS011;49182;50.788;7.318;2023-03-14T10:59:02;2.78;;;0.85;;
43124;SDS011;49182;50.788;7.318;2023-03-14T11:01:33;2.05;;;0.70;;
43124;SDS011;49182;50.788;7.318;2023-03-14T11:04:14;3.20;;;0.70;;
43124;SDS011;49182;50.788;7.318;2023-03-14T11:09:18;2.70;;;1.05;;
43124;SDS011;49182;50.788;7.318;2023-03-14T11:11:50;3.22;;;1.35;;
43124;SDS011;49182;50.788;7.318;2023-03-14T11:14:20;3.35;;;1.75;;
43124;SDS011;49182;50.788;7.318;2023-03-14T11:16:53;3.60;;;1.35;;
43124;SDS011;49182;50.788;7.318;2023-03-14T11:19:41;3.50;;;1.40;;
43124;SDS011;49182;50.788;7.318;2023-03-14T11:22:14;4.60;;;1.48;;
43124;SDS011;49182;50.788;7.318;2023-03-14T11:25:01;5.70;;;1.70;;
43124;SDS011;49182;50.788;7.318;2023-03-14T11:27:39;5.88;;;1.70;;
43124;SDS011;49182;50.788;7.318;2023-03-14T11:30:15;4.88;;;1.40;;
43124;SDS011;49182;50.788;7.318;2023-03-14T11:32:45;3.72;;;1.20;;
43124;SDS011;49182;50.788;7.318;2023-03-14T11:35:17;3.10;;;1.75;;
43124;SDS011;49182;50.788;7.318;2023-03-14T11:37:51;3.13;;;1.65;;
43124;SDS011;49182;50.788;7.318;2023-03-14T11:40:21;3.17;;;1.55;;
43124;SDS011;49182;50.788;7.318;2023-03-14T11:42:51;2.15;;;0.90;;
43124;SDS011;49182;50.788;7.318;2023-03-14T11:45:29;4.13;;;1.25;;
43124;SDS011;49182;50.788;7.318;2023-03-14T11:48:17;7.70;;;1.20;;
43124;SDS011;49182;50.788;7.318;2023-03-14T11:50:52;3.75;;;0.95;;
43124;SDS011;49182;50.788;7.318;2023-03-14T11:53:22;5.68;;;2.33;;
43124;SDS011;49182;50.788;7.318;2023-03-14T11:56:01;2.83;;;1.13;;
43124;SDS011;49182;50.788;7.318;2023-03-14T11:58:29;2.50;;;1.00;;
43124;SDS011;49182;50.788;7.318;2023-03-14T12:03:32;2.40;;;1.08;;
43124;SDS011;49182;50.788;7.318;2023-03-14T12:06:09;3.50;;;1.08;;
43124;SDS011;49182;50.788;7.318;2023-03-14T12:08:46;3.03;;;1.10;;
43124;SDS011;49182;50.788;7.318;2023-03-14T12:11:18;2.35;;;1.10;;
43124;SDS011;49182;50.788;7.318;2023-03-14T12:13:48;2.85;;;0.90;;
43124;SDS011;49182;50.788;7.318;2023-03-14T12:16:26;2.20;;;0.85;;
43124;SDS011;49182;50.788;7.318;2023-03-14T12:19:12;1.20;;;0.60;;
43124;SDS011;49182;50.788;7.318;2023-03-14T12:21:46;2.33;;;0.70;;
43124;SDS011;49182;50.788;7.318;2023-03-14T12:24:17;0.80;;;0.40;;
43124;SDS011;49182;50.788;7.318;2023-03-14T12:26:50;1.00;;;0.30;;
43124;SDS011;49182;50.788;7.318;2023-03-14T12:29:19;2.85;;;0.40;;
43124;SDS011;49182;50.788;7.318;2023-03-14T12:31:47;2.45;;;0.40;;
43124;SDS011;49182;50.788;7.318;2023-03-14T12:34:26;2.00;;;0.50;;
43124;SDS011;49182;50.788;7.318;2023-03-14T12:36:56;5.03;;;0.82;;
43124;SDS011;49182;50.788;7.318;2023-03-14T12:42:13;0.70;;;0.38;;
43124;SDS011;49182;50.788;7.318;2023-03-14T12:44:45;1.38;;;0.60;;
43124;SDS011;49182;50.788;7.318;2023-03-14T12:50:16;1.92;;;0.50;;
43124;SDS011;49182;50.788;7.318;2023-03-14T12:52:51;1.63;;;0.80;;
43124;SDS011;49182;50.788;7.318;2023-03-14T12:55:39;3.42;;;1.08;;
43124;SDS011;49182;50.788;7.318;2023-03-14T12:58:15;3.00;;;1.20;;
43124;SDS011;49182;50.788;7.318;2023-03-14T13:00:49;2.28;;;1.10;;
43124;SDS011;49182;50.788;7.318;2023-03-14T13:03:22;3.83;;;1.30;;
43124;SDS011;49182;50.788;7.318;2023-03-14T13:05:52;5.27;;;1.87;;
43124;SDS011;49182;50.788;7.318;2023-03-14T13:08:32;5.18;;;1.90;;
43124;SDS011;49182;50.788;7.318;2023-03-14T13:11:01;4.38;;;1.77;;
43124;SDS011;49182;50.788;7.318;2023-03-14T13:13:28;5.60;;;2.00;;
43124;SDS011;49182;50.788;7.318;2023-03-14T13:15:56;5.93;;;2.33;;
43124;SDS011;49182;50.788;7.318;2023-03-14T13:18:26;5.95;;;2.70;;
43124;SDS011;49182;50.788;7.318;2023-03-14T13:20:58;5.78;;;2.63;;
43124;SDS011;49182;50.788;7.318;2023-03-14T13:23:28;5.43;;;2.63;;
43124;SDS011;49182;50.788;7.318;2023-03-14T13:25:58;5.15;;;2.78;;
43124;SDS011;49182;50.788;7.318;2023-03-14T13:28:25;6.90;;;3.25;;
43124;SDS011;49182;50.788;7.318;2023-03-14T13:30:54;4.80;;;2.70;;
43124;SDS011;49182;50.788;7.318;2023-03-14T13:33:23;6.35;;;2.85;;
43124;SDS011;49182;50.788;7.318;2023-03-14T13:35:54;7.93;;;3.85;;
43124;SDS011;49182;50.788;7.318;2023-03-14T13:38:23;12.50;;;5.55;;
43124;SDS011;49182;50.788;7.318;2023-03-14T13:40:54;8.68;;;4.20;;
43124;SDS011;49182;50.788;7.318;2023-03-14T13:43:24;9.88;;;4.25;;
43124;SDS011;49182;50.788;7.318;2023-03-14T13:45:54;6.38;;;3.40;;
43124;SDS011;49182;50.788;7.318;2023-03-14T13:48:25;8.32;;;3.08;;
43124;SDS011;49182;50.788;7.318;2023-03-14T13:50:55;7.93;;;3.35;;
43124;SDS011;49182;50.788;7.318;2023-03-14T13:53:25;5.45;;;3.00;;
43124;SDS011;49182;50.788;7.318;2023-03-14T13:55:53;5.65;;;2.80;;
43124;SDS011;49182;50.788;7.318;2023-03-14T13:58:22;5.68;;;2.67;;
43124;SDS011;49182;50.788;7.318;2023-03-14T14:00:54;5.40;;;2.30;;
43124;SDS011;49182;50.788;7.318;2023-03-14T14:03:23;4.95;;;2.33;;
43124;SDS011;49182;50.788;7.318;2023-03-14T14:05:51;6.88;;;2.40;;
43124;SDS011;49182;50.788;7.318;2023-03-14T14:08:21;5.25;;;2.00;;
43124;SDS011;49182;50.788;7.318;2023-03-14T14:10:48;5.03;;;2.15;;
43124;SDS011;49182;50.788;7.318;2023-03-14T14:13:16;5.22;;;2.42;;
43124;SDS011;49182;50.788;7.318;2023-03-14T14:15:47;7.90;;;2.05;;
43124;SDS011;49182;50.788;7.318;2023-03-14T14:18:18;6.82;;;2.03;;
43124;SDS011;49182;50.788;7.318;2023-03-14T14:20:48;5.10;;;2.30;;
43124;SDS011;49182;50.788;7.318;2023-03-14T14:23:17;8.27;;;2.70;;
43124;SDS011;49182;50.788;7.318;2023-03-14T14:25:48;6.05;;;1.80;;
43124;SDS011;49182;50.788;7.318;2023-03-14T14:28:17;4.75;;;1.50;;
43124;SDS011;49182;50.788;7.318;2023-03-14T14:30:58;6.22;;;1.48;;
43124;SDS011;49182;50.788;7.318;2023-03-14T14:33:27;4.85;;;1.85;;
43124;SDS011;49182;50.788;7.318;2023-03-14T14:35:54;5.13;;;2.30;;
43124;SDS011;49182;50.788;7.318;2023-03-14T14:38:25;6.53;;;2.50;;
43124;SDS011;49182;50.788;7.318;2023-03-14T14:40:53;7.50;;;2.50;;
43124;SDS011;49182;50.788;7.318;2023-03-14T14:43:26;7.07;;;2.33;;
43124;SDS011;49182;50.788;7.318;2023-03-14T14:45:56;8.50;;;3.13;;
43124;SDS011;49182;50.788;7.318;2023-03-14T14:48:24;8.05;;;3.13;;
43124;SDS011;49182;50.788;7.318;2023-03-14T14:50:56;7.72;;;3.40;;
43124;SDS011;49182;50.788;7.318;2023-03-14T14:53:28;11.55;;;2.97;;
43124;SDS011;49182;50.788;7.318;2023-03-14T14:55:57;9.05;;;2.95;;
43124;SDS011;49182;50.788;7.318;2023-03-14T14:58:27;9.52;;;3.35;;
43124;SDS011;49182;50.788;7.318;2023-03-14T15:01:02;7.28;;;2.47;;
43124;SDS011;49182;50.788;7.318;2023-03-14T15:03:32;4.28;;;2.13;;
43124;SDS011;49182;50.788;7.318;2023-03-14T15:06:00;5.72;;;2.53;;
43124;SDS011;49182;50.788;7.318;2023-03-14T15:08:29;12.57;;;2.70;;
43124;SDS011;49182;50.788;7.318;2023-03-14T15:10:56;8.48;;;2.50;;
43124;SDS011;49182;50.788;7.318;2023-03-14T15:13:23;9.32;;;2.47;;
43124;SDS011;49182;50.788;7.318;2023-03-14T15:15:50;12.15;;;3.53;;
43124;SDS011;49182;50.788;7.318;2023-03-14T15:18:18;10.32;;;2.80;;
43124;SDS011;49182;50.788;7.318;2023-03-14T15:20:44;8.77;;;2.85;;
43124;SDS011;49182;50.788;7.318;2023-03-14T15:23:12;5.85;;;2.60;;
43124;SDS011;49182;50.788;7.318;2023-03-14T15:25:41;10.68;;;2.25;;